sensor_id;sensor_type;location;lat;lon;timestamp;P1;P2;P0
80289;PMS7003;69592;44.804;-0.550;2023-05-02T00:00:15;2.75;2.75;1.75
80289;PMS7003;69592;44.804;-0.550;2023-05-02T00:02:40;1.25;1.25;1.00
80289;PMS7003;69592;44.804;-0.550;2023-05-02T00:05:05;2.00;2.00;2.00
80289;PMS7003;69592;44.804;-0.550;2023-05-02T00:07:31;4.50;2.75;1.75
80289;PMS7003;69592;44.804;-0.550;2023-05-02T00:09:58;3.00;2.00;2.00
80289;PMS7003;69592;44.804;-0.550;2023-05-02T00:12:26;1.50;1.50;1.00
80289;PMS7003;69592;44.804;-0.550;2023-05-02T00:14:51;3.00;3.00;2.00
80289;PMS7003;69592;44.804;-0.550;2023-05-02T00:17:18;5.00;2.00;1.75
80289;PMS7003;69592;44.804;-0.550;2023-05-02T00:19:44;2.00;2.00;1.75
80289;PMS7003;69592;44.804;-0.550;2023-05-02T00:22:10;3.00;2.00;2.00
80289;PMS7003;69592;44.804;-0.550;2023-05-02T00:24:35;5.00;3.00;1.00
80289;PMS7003;69592;44.804;-0.550;2023-05-02T00:27:01;5.75;3.00;2.00
80289;PMS7003;69592;44.804;-0.550;2023-05-02T00:29:26;2.00;2.00;1.00
80289;PMS7003;69592;44.804;-0.550;2023-05-02T00:31:51;3.00;2.00;2.00
80289;PMS7003;69592;44.804;-0.550;2023-05-02T00:34:17;5.75;4.00;2.25
80289;PMS7003;69592;44.804;-0.550;2023-05-02T00:36:42;5.00;5.00;3.00
80289;PMS7003;69592;44.804;-0.550;2023-05-02T00:39:07;1.00;1.00;1.00
80289;PMS7003;69592;44.804;-0.550;2023-05-02T00:41:33;3.00;2.00;2.00
80289;PMS7003;69592;44.804;-0.550;2023-05-02T00:43:59;3.00;3.00;2.00
80289;PMS7003;69592;44.804;-0.550;2023-05-02T00:46:24;5.25;2.00;2.00
80289;PMS7003;69592;44.804;-0.550;2023-05-02T00:48:50;5.00;2.75;2.00
80289;PMS7003;69592;44.804;-0.550;2023-05-02T00:51:16;6.75;3.00;1.50
80289;PMS7003;69592;44.804;-0.550;2023-05-02T00:53:43;2.75;2.75;2.50
80289;PMS7003;69592;44.804;-0.550;2023-05-02T00:56:09;2.75;2.75;2.00
80289;PMS7003;69592;44.804;-0.550;2023-05-02T00:58:34;7.00;2.25;2.00
80289;PMS7003;69592;44.804;-0.550;2023-05-02T01:06:18;3.00;1.00;1.00
80289;PMS7003;69592;44.804;-0.550;2023-05-02T01:12:05;0.00;0.00;0.00
80289;PMS7003;69592;44.804;-0.550;2023-05-02T01:14:42;3.00;3.00;2.00
80289;PMS7003;69592;44.804;-0.550;2023-05-02T01:17:11;2.25;2.25;1.75
80289;PMS7003;69592;44.804;-0.550;2023-05-02T01:19:41;1.00;1.00;0.50
80289;PMS7003;69592;44.804;-0.550;2023-05-02T01:22:09;3.00;3.00;2.00
80289;PMS7003;69592;44.804;-0.550;2023-05-02T01:30:25;6.00;3.00;2.50
80289;PMS7003;69592;44.804;-0.550;2023-05-02T01:32:54;5.50;5.00;2.75
80289;PMS7003;69592;44.804;-0.550;2023-05-02T01:35:23;2.50;2.50;2.00
80289;PMS7003;69592;44.804;-0.550;2023-05-02T01:37:51;3.50;2.25;2.00
80289;PMS7003;69592;44.804;-0.550;2023-05-02T01:40:18;3.00;3.00;2.00
80289;PMS7003;69592;44.804;-0.550;2023-05-02T01:42:47;3.00;2.00;1.00
80289;PMS7003;69592;44.804;-0.550;2023-05-02T01:45:14;7.00;5.00;3.50
80289;PMS7003;69592;44.804;-0.550;2023-05-02T01:47:41;2.75;2.00;1.25
80289;PMS7003;69592;44.804;-0.550;2023-05-02T01:50:10;6.25;4.50;2.00
80289;PMS7003;69592;44.804;-0.550;2023-05-02T01:52:38;2.50;2.50;1.25
80289;PMS7003;69592;44.804;-0.550;2023-05-02T01:55:05;5.00;5.00;2.00
80289;PMS7003;69592;44.804;-0.550;2023-05-02T01:57:36;5.50;2.00;1.00
80289;PMS7003;69592;44.804;-0.550;2023-05-02T02:00:04;6.00;3.00;2.00
80289;PMS7003;69592;44.804;-0.550;2023-05-02T02:02:34;5.00;2.75;1.00
80289;PMS7003;69592;44.804;-0.550;2023-05-02T02:05:01;3.00;3.00;2.00
80289;PMS7003;69592;44.804;-0.550;2023-05-02T02:07:29;4.25;2.25;2.25
80289;PMS7003;69592;44.804;-0.550;2023-05-02T02:09:55;4.00;4.00;1.75
80289;PMS7003;69592;44.804;-0.550;2023-05-02T02:12:27;3.00;3.00;2.00
80289;PMS7003;69592;44.804;-0.550;2023-05-02T02:15:02;4.50;4.50;2.75
80289;PMS7003;69592;44.804;-0.550;2023-05-02T02:17:39;5.25;3.00;2.00
80289;PMS7003;69592;44.804;-0.550;2023-05-02T02:20:08;5.00;5.00;3.00
80289;PMS7003;69592;44.804;-0.550;2023-05-02T02:22:38;7.00;5.75;3.00
80289;PMS7003;69592;44.804;-0.550;2023-05-02T02:25:07;7.00;5.00;3.00
80289;PMS7003;69592;44.804;-0.550;2023-05-02T02:27:36;5.25;3.50;2.00
80289;PMS7003;69592;44.804;-0.550;2023-05-02T02:30:02;5.00;3.00;2.00
80289;PMS7003;69592;44.804;-0.550;2023-05-02T02:32:28;3.00;3.00;2.00
80289;PMS7003;69592;44.804;-0.550;2023-05-02T02:34:54;3.00;3.00;2.00
80289;PMS7003;69592;44.804;-0.550;2023-05-02T02:37:23;2.00;2.00;1.25
80289;PMS7003;69592;44.804;-0.550;2023-05-02T02:40:04;6.50;3.50;2.25
80289;PMS7003;69592;44.804;-0.550;2023-05-02T02:42:38;6.50;5.25;2.00
80289;PMS7003;69592;44.804;-0.550;2023-05-02T02:56:29;2.50;2.50;2.25
80289;PMS7003;69592;44.804;-0.550;2023-05-02T02:59:22;5.25;5.00;3.00
80289;PMS7003;69592;44.804;-0.550;2023-05-02T03:01:55;7.00;5.50;3.00
80289;PMS7003;69592;44.804;-0.550;2023-05-02T03:04:30;7.00;3.50;3.00
80289;PMS7003;69592;44.804;-0.550;2023-05-02T03:07:01;5.75;5.75;4.50
80289;PMS7003;69592;44.804;-0.550;2023-05-02T03:09:27;5.50;4.50;2.75
80289;PMS7003;69592;44.804;-0.550;2023-05-02T03:11:57;5.75;5.25;2.75
80289;PMS7003;69592;44.804;-0.550;2023-05-02T03:14:22;6.75;3.00;2.75
80289;PMS7003;69592;44.804;-0.550;2023-05-02T03:16:48;7.50;5.00;3.00
80289;PMS7003;69592;44.804;-0.550;2023-05-02T03:19:14;5.25;5.25;3.00
80289;PMS7003;69592;44.804;-0.550;2023-05-02T03:21:39;5.50;5.50;5.00
80289;PMS7003;69592;44.804;-0.550;2023-05-02T03:24:05;6.00;5.25;2.00
80289;PMS7003;69592;44.804;-0.550;2023-05-02T03:26:31;5.50;4.00;2.00
80289;PMS7003;69592;44.804;-0.550;2023-05-02T03:28:56;5.00;3.25;2.00
80289;PMS7003;69592;44.804;-0.550;2023-05-02T03:31:22;5.00;5.00;2.00
80289;PMS7003;69592;44.804;-0.550;2023-05-02T03:33:48;5.75;5.75;5.00
80289;PMS7003;69592;44.804;-0.550;2023-05-02T03:36:13;4.00;4.00;3.00
80289;PMS7003;69592;44.804;-0.550;2023-05-02T03:38:39;6.00;6.00;4.50
80289;PMS7003;69592;44.804;-0.550;2023-05-02T03:41:05;6.00;6.00;2.00
80289;PMS7003;69592;44.804;-0.550;2023-05-02T03:43:30;4.00;4.00;3.25
80289;PMS7003;69592;44.804;-0.550;2023-05-02T03:45:56;4.75;4.75;2.75
80289;PMS7003;69592;44.804;-0.550;2023-05-02T03:48:22;5.25;5.25;3.25
80289;PMS7003;69592;44.804;-0.550;2023-05-02T03:50:48;3.00;3.00;2.00
80289;PMS7003;69592;44.804;-0.550;2023-05-02T03:53:14;5.00;5.00;3.00
80289;PMS7003;69592;44.804;-0.550;2023-05-02T03:55:42;5.50;5.00;3.25
80289;PMS7003;69592;44.804;-0.550;2023-05-02T03:58:09;5.25;2.50;2.00
80289;PMS7003;69592;44.804;-0.550;2023-05-02T04:00:35;8.75;5.50;3.00
80289;PMS7003;69592;44.804;-0.550;2023-05-02T04:03:02;8.25;6.00;4.75
80289;PMS7003;69592;44.804;-0.550;2023-05-02T04:05:27;9.25;5.75;4.00
80289;PMS7003;69592;44.804;-0.550;2023-05-02T04:07:53;6.50;5.00;4.00
80289;PMS7003;69592;44.804;-0.550;2023-05-02T04:10:19;4.75;4.75;3.50
80289;PMS7003;69592;44.804;-0.550;2023-05-02T04:12:44;4.25;4.25;2.25
80289;PMS7003;69592;44.804;-0.550;2023-05-02T04:15:10;12.00;7.50;6.00
80289;PMS7003;69592;44.804;-0.550;2023-05-02T04:17:36;5.50;4.25;3.25
80289;PMS7003;69592;44.804;-0.550;2023-05-02T04:20:01;6.50;6.50;5.00
80289;PMS7003;69592;44.804;-0.550;2023-05-02T04:22:28;4.50;4.00;1.00
80289;PMS7003;69592;44.804;-0.550;2023-05-02T04:24:54;6.00;5.25;4.00
80289;PMS7003;69592;44.804;-0.550;2023-05-02T04:27:20;5.00;5.00;3.25
80289;PMS7003;69592;44.804;-0.550;2023-05-02T04:29:49;2.50;2.50;2.00
80289;PMS7003;69592;44.804;-0.550;2023-05-02T04:32:16;5.25;5.25;3.25
80289;PMS7003;69592;44.804;-0.550;2023-05-02T04:34:41;6.00;4.00;2.25
80289;PMS7003;69592;44.804;-0.550;2023-05-02T04:37:07;9.25;7.75;4.50
80289;PMS7003;69592;44.804;-0.550;2023-05-02T04:39:32;12.50;9.50;5.25
80289;PMS7003;69592;44.804;-0.550;2023-05-02T04:42:01;4.50;4.50;3.50
80289;PMS7003;69592;44.804;-0.550;2023-05-02T04:44:27;6.00;5.00;3.25
80289;PMS7003;69592;44.804;-0.550;2023-05-02T04:46:52;4.00;4.00;3.25
80289;PMS7003;69592;44.804;-0.550;2023-05-02T04:49:18;9.00;5.75;3.00
80289;PMS7003;69592;44.804;-0.550;2023-05-02T04:51:43;6.50;6.00;4.25
80289;PMS7003;69592;44.804;-0.550;2023-05-02T04:54:09;6.00;6.00;3.50
80289;PMS7003;69592;44.804;-0.550;2023-05-02T04:56:35;6.75;5.00;3.25
80289;PMS7003;69592;44.804;-0.550;2023-05-02T04:59:00;9.25;5.50;3.25
80289;PMS7003;69592;44.804;-0.550;2023-05-02T05:01:26;6.00;5.00;4.00
80289;PMS7003;69592;44.804;-0.550;2023-05-02T05:03:54;3.00;3.00;2.75
80289;PMS7003;69592;44.804;-0.550;2023-05-02T05:06:20;5.25;5.25;4.50
80289;PMS7003;69592;44.804;-0.550;2023-05-02T05:08:46;6.00;4.50;3.25
80289;PMS7003;69592;44.804;-0.550;2023-05-02T05:11:12;6.00;6.00;4.00
80289;PMS7003;69592;44.804;-0.550;2023-05-02T05:13:37;4.00;4.00;2.25
80289;PMS7003;69592;44.804;-0.550;2023-05-02T05:16:02;5.75;4.00;3.25
80289;PMS7003;69592;44.804;-0.550;2023-05-02T05:18:29;5.00;4.00;3.25
80289;PMS7003;69592;44.804;-0.550;2023-05-02T05:20:54;9.25;8.00;5.75
80289;PMS7003;69592;44.804;-0.550;2023-05-02T05:23:20;7.25;6.00;5.00
80289;PMS7003;69592;44.804;-0.550;2023-05-02T05:25:46;6.50;6.00;5.00
80289;PMS7003;69592;44.804;-0.550;2023-05-02T05:28:11;5.00;5.00;4.00
80289;PMS7003;69592;44.804;-0.550;2023-05-02T05:30:37;7.75;5.50;4.50
80289;PMS7003;69592;44.804;-0.550;2023-05-02T05:33:02;7.25;6.00;5.00
80289;PMS7003;69592;44.804;-0.550;2023-05-02T05:35:28;6.00;5.25;4.50
80289;PMS7003;69592;44.804;-0.550;2023-05-02T05:37:53;9.75;5.75;5.00
80289;PMS7003;69592;44.804;-0.550;2023-05-02T05:40:19;6.00;6.00;5.00
80289;PMS7003;69592;44.804;-0.550;2023-05-02T05:42:47;5.50;5.50;3.25
80289;PMS7003;69592;44.804;-0.550;2023-05-02T05:45:13;5.25;5.25;5.00
80289;PMS7003;69592;44.804;-0.550;2023-05-02T05:47:41;10.50;6.25;4.50
80289;PMS7003;69592;44.804;-0.550;2023-05-02T05:50:06;5.00;3.25;2.50
80289;PMS7003;69592;44.804;-0.550;2023-05-02T05:52:36;13.25;7.00;5.00
80289;PMS7003;69592;44.804;-0.550;2023-05-02T05:55:01;13.50;10.50;6.00
80289;PMS7003;69592;44.804;-0.550;2023-05-02T05:57:28;7.00;6.50;5.50
80289;PMS7003;69592;44.804;-0.550;2023-05-02T05:59:56;9.00;7.25;5.25
80289;PMS7003;69592;44.804;-0.550;2023-05-02T06:02:21;9.25;6.50;4.00
80289;PMS7003;69592;44.804;-0.550;2023-05-02T06:04:47;6.25;6.25;5.00
80289;PMS7003;69592;44.804;-0.550;2023-05-02T06:07:12;6.00;6.00;5.00
80289;PMS7003;69592;44.804;-0.550;2023-05-02T06:09:37;5.00;5.00;5.00
80289;PMS7003;69592;44.804;-0.550;2023-05-02T06:12:03;6.00;6.00;5.00
80289;PMS7003;69592;44.804;-0.550;2023-05-02T06:14:28;8.25;6.50;5.00
80289;PMS7003;69592;44.804;-0.550;2023-05-02T06:16:54;7.25;7.00;6.00
80289;PMS7003;69592;44.804;-0.550;2023-05-02T06:19:19;5.75;5.75;4.00
80289;PMS7003;69592;44.804;-0.550;2023-05-02T06:21:45;9.00;6.25;5.00
80289;PMS7003;69592;44.804;-0.550;2023-05-02T06:24:10;9.00;7.00;6.00
80289;PMS7003;69592;44.804;-0.550;2023-05-02T06:26:35;6.00;6.00;3.00
80289;PMS7003;69592;44.804;-0.550;2023-05-02T06:29:01;5.50;5.50;5.00
80289;PMS7003;69592;44.804;-0.550;2023-05-02T06:31:27;5.00;5.00;3.00
80289;PMS7003;69592;44.804;-0.550;2023-05-02T06:33:53;5.75;5.75;5.00
80289;PMS7003;69592;44.804;-0.550;2023-05-02T06:36:18;5.25;5.25;2.50
80289;PMS7003;69592;44.804;-0.550;2023-05-02T06:38:43;3.75;3.50;2.00
80289;PMS7003;69592;44.804;-0.550;2023-05-02T06:41:12;2.00;2.00;2.00
80289;PMS7003;69592;44.804;-0.550;2023-05-02T06:43:41;3.50;3.50;3.00
80289;PMS7003;69592;44.804;-0.550;2023-05-02T06:46:06;2.00;2.00;2.00
80289;PMS7003;69592;44.804;-0.550;2023-05-02T06:48:34;6.00;2.50;2.00
80289;PMS7003;69592;44.804;-0.550;2023-05-02T06:51:00;7.75;6.75;4.50
80289;PMS7003;69592;44.804;-0.550;2023-05-02T06:53:25;3.00;3.00;2.00
80289;PMS7003;69592;44.804;-0.550;2023-05-02T06:55:50;3.00;3.00;2.00
80289;PMS7003;69592;44.804;-0.550;2023-05-02T06:58:17;5.75;5.75;3.00
80289;PMS7003;69592;44.804;-0.550;2023-05-02T07:00:42;6.00;3.00;3.00
80289;PMS7003;69592;44.804;-0.550;2023-05-02T07:03:08;6.25;6.00;5.00
80289;PMS7003;69592;44.804;-0.550;2023-05-02T07:05:35;3.50;2.25;2.00
80289;PMS7003;69592;44.804;-0.550;2023-05-02T07:08:00;3.00;3.00;1.00
80289;PMS7003;69592;44.804;-0.550;2023-05-02T07:10:26;6.50;3.25;2.25
80289;PMS7003;69592;44.804;-0.550;2023-05-02T07:12:51;3.50;3.00;3.00
80289;PMS7003;69592;44.804;-0.550;2023-05-02T07:15:16;4.00;3.00;2.50
80289;PMS7003;69592;44.804;-0.550;2023-05-02T07:17:42;4.50;3.00;2.25
80289;PMS7003;69592;44.804;-0.550;2023-05-02T07:20:09;4.75;3.00;2.75
80289;PMS7003;69592;44.804;-0.550;2023-05-02T07:22:34;3.75;3.00;2.00
80289;PMS7003;69592;44.804;-0.550;2023-05-02T07:25:00;3.00;3.00;3.00
80289;PMS7003;69592;44.804;-0.550;2023-05-02T07:27:26;6.00;2.00;1.75
80289;PMS7003;69592;44.804;-0.550;2023-05-02T07:29:52;3.25;2.25;2.00
80289;PMS7003;69592;44.804;-0.550;2023-05-02T07:32:18;5.33;2.00;1.00
80289;PMS7003;69592;44.804;-0.550;2023-05-02T07:34:45;6.33;4.00;3.00
80289;PMS7003;69592;44.804;-0.550;2023-05-02T07:37:11;3.50;3.50;2.50
80289;PMS7003;69592;44.804;-0.550;2023-05-02T07:39:37;2.00;2.00;2.00
80289;PMS7003;69592;44.804;-0.550;2023-05-02T07:42:02;2.00;2.00;2.00
80289;PMS7003;69592;44.804;-0.550;2023-05-02T07:44:27;3.67;3.67;2.33
80289;PMS7003;69592;44.804;-0.550;2023-05-02T07:46:53;4.00;2.00;2.00
80289;PMS7003;69592;44.804;-0.550;2023-05-02T07:49:19;3.67;3.33;2.00
80289;PMS7003;69592;44.804;-0.550;2023-05-02T07:51:44;4.33;2.00;2.00
80289;PMS7003;69592;44.804;-0.550;2023-05-02T07:54:14;2.67;2.33;2.00
80289;PMS7003;69592;44.804;-0.550;2023-05-02T07:56:45;3.33;1.00;1.00
80289;PMS7003;69592;44.804;-0.550;2023-05-02T07:59:11;4.67;4.00;2.00
80289;PMS7003;69592;44.804;-0.550;2023-05-02T08:01:37;2.00;2.00;1.00
80289;PMS7003;69592;44.804;-0.550;2023-05-02T08:04:03;2.33;2.33;2.00
80289;PMS7003;69592;44.804;-0.550;2023-05-02T08:06:29;5.67;3.00;2.00
80289;PMS7003;69592;44.804;-0.550;2023-05-02T08:08:55;5.00;3.67;3.00
80289;PMS7003;69592;44.804;-0.550;2023-05-02T08:11:20;2.67;2.67;2.00
80289;PMS7003;69592;44.804;-0.550;2023-05-02T08:13:46;2.00;1.33;1.00
80289;PMS7003;69592;44.804;-0.550;2023-05-02T08:16:12;3.67;3.00;2.67
80289;PMS7003;69592;44.804;-0.550;2023-05-02T08:18:37;2.00;2.00;1.33
80289;PMS7003;69592;44.804;-0.550;2023-05-02T08:21:03;2.67;2.67;2.67
80289;PMS7003;69592;44.804;-0.550;2023-05-02T08:23:28;4.00;2.33;1.67
80289;PMS7003;69592;44.804;-0.550;2023-05-02T08:25:54;2.00;2.00;1.00
80289;PMS7003;69592;44.804;-0.550;2023-05-02T08:28:19;2.00;2.00;1.00
80289;PMS7003;69592;44.804;-0.550;2023-05-02T08:30:44;2.00;2.00;2.00
80289;PMS7003;69592;44.804;-0.550;2023-05-02T08:33:10;2.00;2.00;2.00
80289;PMS7003;69592;44.804;-0.550;2023-05-02T08:35:35;2.33;1.33;1.00
80289;PMS7003;69592;44.804;-0.550;2023-05-02T08:38:01;2.00;2.00;1.67
80289;PMS7003;69592;44.804;-0.550;2023-05-02T08:40:26;2.00;2.00;1.33
80289;PMS7003;69592;44.804;-0.550;2023-05-02T08:42:52;1.00;1.00;1.00
80289;PMS7003;69592;44.804;-0.550;2023-05-02T08:45:18;4.33;3.00;2.00
80289;PMS7003;69592;44.804;-0.550;2023-05-02T08:47:44;2.00;2.00;2.00
80289;PMS7003;69592;44.804;-0.550;2023-05-02T08:50:10;4.33;3.00;2.00
80289;PMS7003;69592;44.804;-0.550;2023-05-02T08:52:36;2.00;2.00;1.00
80289;PMS7003;69592;44.804;-0.550;2023-05-02T08:55:03;3.00;2.00;1.00
80289;PMS7003;69592;44.804;-0.550;2023-05-02T08:57:30;5.67;3.00;2.00
80289;PMS7003;69592;44.804;-0.550;2023-05-02T08:59:55;2.33;1.67;1.00
80289;PMS7003;69592;44.804;-0.550;2023-05-02T09:02:39;2.00;2.00;1.00
80289;PMS7003;69592;44.804;-0.550;2023-05-02T09:05:19;2.00;2.00;1.00
80289;PMS7003;69592;44.804;-0.550;2023-05-02T09:07:50;3.00;1.00;1.00
80289;PMS7003;69592;44.804;-0.550;2023-05-02T09:10:16;3.00;2.00;2.00
80289;PMS7003;69592;44.804;-0.550;2023-05-02T09:12:45;2.00;2.00;2.00
80289;PMS7003;69592;44.804;-0.550;2023-05-02T09:15:12;3.00;1.33;1.33
80289;PMS7003;69592;44.804;-0.550;2023-05-02T09:17:43;1.33;1.33;1.00
80289;PMS7003;69592;44.804;-0.550;2023-05-02T09:20:11;1.67;1.00;1.00
80289;PMS7003;69592;44.804;-0.550;2023-05-02T09:22:38;1.33;1.33;1.00
80289;PMS7003;69592;44.804;-0.550;2023-05-02T09:25:13;1.00;1.00;0.67
80289;PMS7003;69592;44.804;-0.550;2023-05-02T09:27:49;2.33;2.00;1.00
80289;PMS7003;69592;44.804;-0.550;2023-05-02T09:30:20;2.00;1.00;1.00
80289;PMS7003;69592;44.804;-0.550;2023-05-02T09:32:47;2.67;2.00;1.33
80289;PMS7003;69592;44.804;-0.550;2023-05-02T09:35:19;2.00;2.00;1.00
80289;PMS7003;69592;44.804;-0.550;2023-05-02T09:37:52;1.00;1.00;1.00
80289;PMS7003;69592;44.804;-0.550;2023-05-02T09:40:22;1.33;1.00;1.00
80289;PMS7003;69592;44.804;-0.550;2023-05-02T09:42:48;1.00;1.00;1.00
80289;PMS7003;69592;44.804;-0.550;2023-05-02T09:45:21;3.33;2.00;1.00
80289;PMS7003;69592;44.804;-0.550;2023-05-02T09:47:48;1.00;1.00;1.00
80289;PMS7003;69592;44.804;-0.550;2023-05-02T09:53:00;2.00;1.00;1.00
80289;PMS7003;69592;44.804;-0.550;2023-05-02T09:55:29;1.33;1.33;1.00
80289;PMS7003;69592;44.804;-0.550;2023-05-02T09:57:55;1.00;1.00;1.00
80289;PMS7003;69592;44.804;-0.550;2023-05-02T10:00:39;1.00;1.00;1.00
80289;PMS7003;69592;44.804;-0.550;2023-05-02T10:03:06;2.67;2.00;1.00
80289;PMS7003;69592;44.804;-0.550;2023-05-02T10:05:33;1.33;1.33;1.00
80289;PMS7003;69592;44.804;-0.550;2023-05-02T10:08:02;1.00;1.00;1.00
80289;PMS7003;69592;44.804;-0.550;2023-05-02T10:10:35;1.33;1.33;1.00
80289;PMS7003;69592;44.804;-0.550;2023-05-02T10:13:02;1.33;0.67;0.67
80289;PMS7003;69592;44.804;-0.550;2023-05-02T10:15:30;1.00;1.00;1.00
80289;PMS7003;69592;44.804;-0.550;2023-05-02T10:17:57;1.00;0.67;0.00
80289;PMS7003;69592;44.804;-0.550;2023-05-02T10:20:24;1.00;1.00;1.00
80289;PMS7003;69592;44.804;-0.550;2023-05-02T10:22:57;1.67;1.67;1.00
80289;PMS7003;69592;44.804;-0.550;2023-05-02T10:25:23;1.00;1.00;1.00
80289;PMS7003;69592;44.804;-0.550;2023-05-02T10:27:49;1.00;1.00;1.00
80289;PMS7003;69592;44.804;-0.550;2023-05-02T10:30:16;1.00;1.00;1.00
80289;PMS7003;69592;44.804;-0.550;2023-05-02T10:32:43;1.33;1.33;1.00
80289;PMS7003;69592;44.804;-0.550;2023-05-02T10:35:11;5.00;3.00;3.00
80289;PMS7003;69592;44.804;-0.550;2023-05-02T10:37:37;3.00;2.00;1.67
80289;PMS7003;69592;44.804;-0.550;2023-05-02T10:40:08;1.00;1.00;0.67
80289;PMS7003;69592;44.804;-0.550;2023-05-02T10:42:39;1.00;1.00;1.00
80289;PMS7003;69592;44.804;-0.550;2023-05-02T10:45:10;1.00;1.00;1.00
80289;PMS7003;69592;44.804;-0.550;2023-05-02T10:50:42;3.00;3.00;2.00
80289;PMS7003;69592;44.804;-0.550;2023-05-02T10:53:21;1.00;1.00;1.00
80289;PMS7003;69592;44.804;-0.550;2023-05-02T10:58:39;2.67;2.67;2.00
80289;PMS7003;69592;44.804;-0.550;2023-05-02T11:06:28;1.00;1.00;1.00
80289;PMS7003;69592;44.804;-0.550;2023-05-02T11:11:43;3.00;3.00;3.00
80289;PMS7003;69592;44.804;-0.550;2023-05-02T11:14:11;1.25;1.25;1.00
80289;PMS7003;69592;44.804;-0.550;2023-05-02T11:19:26;1.25;1.00;1.00
80289;PMS7003;69592;44.804;-0.550;2023-05-02T11:21:52;1.00;1.00;1.00
80289;PMS7003;69592;44.804;-0.550;2023-05-02T11:24:41;1.75;1.75;1.00
80289;PMS7003;69592;44.804;-0.550;2023-05-02T11:30:01;1.00;1.00;1.00
80289;PMS7003;69592;44.804;-0.550;2023-05-02T11:33:16;1.00;1.00;1.00
80289;PMS7003;69592;44.804;-0.550;2023-05-02T11:35:18;1.00;1.00;1.00
80289;PMS7003;69592;44.804;-0.550;2023-05-02T11:40:22;2.00;2.00;1.25
80289;PMS7003;69592;44.804;-0.550;2023-05-02T11:42:50;2.50;2.00;1.50
80289;PMS7003;69592;44.804;-0.550;2023-05-02T11:45:16;2.75;1.75;1.50
80289;PMS7003;69592;44.804;-0.550;2023-05-02T11:47:42;2.25;2.00;1.00
80289;PMS7003;69592;44.804;-0.550;2023-05-02T11:50:14;4.00;4.00;3.00
80289;PMS7003;69592;44.804;-0.550;2023-05-02T11:52:42;2.00;2.00;1.75
80289;PMS7003;69592;44.804;-0.550;2023-05-02T11:55:11;1.00;1.00;1.00
80289;PMS7003;69592;44.804;-0.550;2023-05-02T11:57:38;1.00;1.00;1.00
80289;PMS7003;69592;44.804;-0.550;2023-05-02T12:00:04;1.00;1.00;1.00
80289;PMS7003;69592;44.804;-0.550;2023-05-02T12:02:42;2.00;2.00;1.25
80289;PMS7003;69592;44.804;-0.550;2023-05-02T12:05:09;1.00;1.00;1.00
80289;PMS7003;69592;44.804;-0.550;2023-05-02T12:07:42;1.00;1.00;1.00
80289;PMS7003;69592;44.804;-0.550;2023-05-02T12:10:11;1.00;1.00;1.00
80289;PMS7003;69592;44.804;-0.550;2023-05-02T12:12:37;1.00;1.00;0.75
80289;PMS7003;69592;44.804;-0.550;2023-05-02T12:15:05;2.00;1.00;1.00
80289;PMS7003;69592;44.804;-0.550;2023-05-02T12:17:42;1.00;1.00;1.00
80289;PMS7003;69592;44.804;-0.550;2023-05-02T12:20:09;1.00;1.00;0.00
80289;PMS7003;69592;44.804;-0.550;2023-05-02T12:22:36;2.50;2.50;2.00
80289;PMS7003;69592;44.804;-0.550;2023-05-02T12:25:03;1.25;1.25;1.25
80289;PMS7003;69592;44.804;-0.550;2023-05-02T12:27:29;2.00;2.00;1.00
80289;PMS7003;69592;44.804;-0.550;2023-05-02T12:29:57;2.00;2.00;1.50
80289;PMS7003;69592;44.804;-0.550;2023-05-02T12:32:29;2.00;2.00;2.00
80289;PMS7003;69592;44.804;-0.550;2023-05-02T12:34:57;1.00;1.00;1.00
80289;PMS7003;69592;44.804;-0.550;2023-05-02T12:37:27;1.25;1.25;1.00
80289;PMS7003;69592;44.804;-0.550;2023-05-02T12:39:53;2.00;2.00;2.00
80289;PMS7003;69592;44.804;-0.550;2023-05-02T12:42:20;3.00;2.25;2.00
80289;PMS7003;69592;44.804;-0.550;2023-05-02T12:44:47;1.50;1.50;1.00
80289;PMS7003;69592;44.804;-0.550;2023-05-02T12:47:16;2.00;2.00;1.00
80289;PMS7003;69592;44.804;-0.550;2023-05-02T12:52:14;1.25;1.25;1.00
80289;PMS7003;69592;44.804;-0.550;2023-05-02T12:54:40;2.00;2.00;2.00
80289;PMS7003;69592;44.804;-0.550;2023-05-02T12:57:05;3.00;1.75;1.75
80289;PMS7003;69592;44.804;-0.550;2023-05-02T12:59:31;1.20;1.20;1.00
80289;PMS7003;69592;44.804;-0.550;2023-05-02T13:01:57;1.00;1.00;1.00
80289;PMS7003;69592;44.804;-0.550;2023-05-02T13:04:33;2.00;2.00;1.50
80289;PMS7003;69592;44.804;-0.550;2023-05-02T13:07:03;2.50;2.00;2.00
80289;PMS7003;69592;44.804;-0.550;2023-05-02T13:09:28;1.00;1.00;1.00
80289;PMS7003;69592;44.804;-0.550;2023-05-02T13:11:54;1.00;1.00;0.75
80289;PMS7003;69592;44.804;-0.550;2023-05-02T13:14:19;1.00;1.00;1.00
80289;PMS7003;69592;44.804;-0.550;2023-05-02T13:16:44;1.00;1.00;1.00
80289;PMS7003;69592;44.804;-0.550;2023-05-02T13:19:10;2.00;2.00;2.00
80289;PMS7003;69592;44.804;-0.550;2023-05-02T13:21:35;1.25;1.25;1.25
80289;PMS7003;69592;44.804;-0.550;2023-05-02T13:24:04;1.00;1.00;1.00
80289;PMS7003;69592;44.804;-0.550;2023-05-02T13:26:30;1.25;1.00;1.00
80289;PMS7003;69592;44.804;-0.550;2023-05-02T13:28:55;1.00;1.00;0.75
80289;PMS7003;69592;44.804;-0.550;2023-05-02T13:31:21;3.00;1.00;1.00
80289;PMS7003;69592;44.804;-0.550;2023-05-02T13:33:46;1.00;1.00;1.00
80289;PMS7003;69592;44.804;-0.550;2023-05-02T13:36:12;2.00;2.00;1.00
80289;PMS7003;69592;44.804;-0.550;2023-05-02T13:38:37;1.00;1.00;1.00
80289;PMS7003;69592;44.804;-0.550;2023-05-02T13:41:03;2.00;1.00;0.50
80289;PMS7003;69592;44.804;-0.550;2023-05-02T13:43:29;0.00;0.00;0.00
80289;PMS7003;69592;44.804;-0.550;2023-05-02T13:45:54;0.75;0.75;0.75
80289;PMS7003;69592;44.804;-0.550;2023-05-02T13:48:20;1.00;1.00;0.50
80289;PMS7003;69592;44.804;-0.550;2023-05-02T13:50:46;0.25;0.25;0.25
80289;PMS7003;69592;44.804;-0.550;2023-05-02T13:53:11;0.50;0.50;0.25
80289;PMS7003;69592;44.804;-0.550;2023-05-02T13:55:36;0.50;0.50;0.50
80289;PMS7003;69592;44.804;-0.550;2023-05-02T13:58:02;0.50;0.50;0.50
80289;PMS7003;69592;44.804;-0.550;2023-05-02T14:00:27;3.00;1.25;1.00
80289;PMS7003;69592;44.804;-0.550;2023-05-02T14:02:53;2.25;1.25;1.25
80289;PMS7003;69592;44.804;-0.550;2023-05-02T14:05:19;0.75;0.75;0.50
80289;PMS7003;69592;44.804;-0.550;2023-05-02T14:07:44;1.75;0.75;0.75
80289;PMS7003;69592;44.804;-0.550;2023-05-02T14:10:10;1.50;1.50;1.00
80289;PMS7003;69592;44.804;-0.550;2023-05-02T14:12:36;2.00;2.00;1.25
80289;PMS7003;69592;44.804;-0.550;2023-05-02T14:15:01;1.00;1.00;0.75
80289;PMS7003;69592;44.804;-0.550;2023-05-02T14:17:26;0.75;0.25;0.00
80289;PMS7003;69592;44.804;-0.550;2023-05-02T14:19:52;1.00;1.00;0.75
80289;PMS7003;69592;44.804;-0.550;2023-05-02T14:22:17;1.00;0.50;0.00
80289;PMS7003;69592;44.804;-0.550;2023-05-02T14:24:43;0.75;0.75;0.75
80289;PMS7003;69592;44.804;-0.550;2023-05-02T14:27:08;1.25;1.25;0.75
80289;PMS7003;69592;44.804;-0.550;2023-05-02T14:29:37;3.40;1.80;1.00
80289;PMS7003;69592;44.804;-0.550;2023-05-02T14:32:03;0.75;0.75;0.75
80289;PMS7003;69592;44.804;-0.550;2023-05-02T14:34:29;0.75;0.75;0.75
80289;PMS7003;69592;44.804;-0.550;2023-05-02T14:36:55;1.00;1.00;0.75
80289;PMS7003;69592;44.804;-0.550;2023-05-02T14:39:20;0.00;0.00;0.00
80289;PMS7003;69592;44.804;-0.550;2023-05-02T14:41:46;2.00;2.00;2.00
80289;PMS7003;69592;44.804;-0.550;2023-05-02T14:44:12;4.50;2.25;1.00
80289;PMS7003;69592;44.804;-0.550;2023-05-02T14:46:37;1.00;1.00;1.00
80289;PMS7003;69592;44.804;-0.550;2023-05-02T14:49:03;1.00;1.00;1.00
80289;PMS7003;69592;44.804;-0.550;2023-05-02T14:51:28;2.25;2.00;1.00
80289;PMS7003;69592;44.804;-0.550;2023-05-02T14:53:55;2.00;2.00;2.00
80289;PMS7003;69592;44.804;-0.550;2023-05-02T14:56:21;3.75;1.00;1.00
80289;PMS7003;69592;44.804;-0.550;2023-05-02T14:58:48;1.40;0.80;0.80
80289;PMS7003;69592;44.804;-0.550;2023-05-02T15:01:14;1.75;1.75;1.00